createdAt,value
2017-10-10T00:00:53.794Z,84.50
2017-10-10T00:03:20.757Z,84.60
2017-10-10T00:05:47.642Z,84.70
2017-10-10T00:08:14.634Z,84.30
2017-10-10T00:10:41.522Z,84.40
2017-10-10T00:13:08.808Z,84.40
2017-10-10T00:15:35.795Z,84.40
2017-10-10T00:18:02.753Z,84.30
2017-10-10T00:20:30.099Z,84.50
2017-10-10T00:22:57.019Z,84.50
2017-10-10T00:25:23.998Z,84.60
2017-10-10T00:27:50.942Z,84.70
2017-10-10T00:30:17.865Z,84.50
2017-10-10T00:32:44.790Z,84.70
2017-10-10T00:35:11.678Z,84.90
2017-10-10T00:37:38.630Z,85.00
2017-10-10T00:40:05.573Z,84.80
2017-10-10T00:42:32.458Z,84.50
2017-10-10T00:44:59.461Z,84.60
2017-10-10T00:47:26.342Z,84.50
2017-10-10T00:49:53.231Z,84.10
2017-10-10T00:52:20.152Z,84.00
2017-10-10T00:54:47.051Z,83.70
2017-10-10T00:57:13.940Z,83.50
2017-10-10T00:59:40.877Z,83.40
2017-10-10T01:02:07.758Z,83.40
2017-10-10T01:04:34.734Z,83.50
2017-10-10T01:07:01.671Z,83.90
2017-10-10T01:09:28.569Z,83.60
2017-10-10T01:11:55.449Z,83.20
2017-10-10T01:14:22.422Z,83.10
2017-10-10T01:16:49.774Z,83.30
2017-10-10T01:19:16.654Z,83.30
2017-10-10T01:21:43.573Z,83.30
2017-10-10T01:24:10.867Z,83.20
2017-10-10T01:26:37.746Z,83.30
2017-10-10T01:29:04.675Z,83.40
2017-10-10T01:31:31.566Z,83.30
2017-10-10T01:33:58.853Z,82.40
2017-10-10T01:36:25.775Z,82.40
2017-10-10T01:38:53.070Z,82.30
2017-10-10T01:41:19.957Z,82.30
2017-10-10T01:43:46.883Z,81.90
2017-10-10T01:46:13.766Z,82.00
2017-10-10T01:48:41.047Z,82.60
2017-10-10T01:51:07.966Z,82.60
2017-10-10T01:53:35.244Z,82.40
2017-10-10T01:56:02.122Z,82.40
2017-10-10T01:58:29.045Z,81.90
2017-10-10T02:00:55.938Z,81.80
2017-10-10T02:03:22.826Z,81.60
2017-10-10T02:05:49.743Z,82.10
2017-10-10T02:08:17.030Z,82.70
2017-10-10T02:10:43.914Z,82.80
2017-10-10T02:13:10.870Z,83.30
2017-10-10T02:15:37.823Z,83.40
2017-10-10T02:18:04.766Z,83.70
2017-10-10T02:20:31.709Z,84.10
2017-10-10T02:22:58.662Z,84.10
2017-10-10T02:25:25.546Z,84.00
2017-10-10T02:27:52.546Z,84.10
2017-10-10T02:30:19.497Z,84.40
2017-10-10T02:32:46.447Z,84.10
2017-10-10T02:35:13.382Z,84.00
2017-10-10T02:37:40.346Z,84.30
2017-10-10T02:40:07.642Z,84.30
2017-10-10T02:42:34.570Z,84.40
2017-10-10T02:45:01.484Z,84.50
2017-10-10T02:47:28.373Z,84.40
2017-10-10T02:49:55.474Z,84.30
2017-10-10T02:52:22.370Z,84.00
2017-10-10T02:54:49.250Z,83.90
2017-10-10T02:57:16.213Z,83.90
2017-10-10T02:59:43.165Z,83.70
2017-10-10T03:02:10.446Z,84.00
2017-10-10T03:04:37.372Z,84.00
2017-10-10T03:07:04.655Z,84.30
2017-10-10T03:09:31.590Z,84.30
2017-10-10T03:11:58.614Z,84.40
2017-10-10T03:14:25.493Z,84.30
2017-10-10T03:16:52.417Z,84.50
2017-10-10T03:19:19.735Z,84.40
2017-10-10T03:21:46.706Z,84.40
2017-10-10T03:24:13.645Z,84.40
2017-10-10T03:26:40.701Z,84.10
2017-10-10T03:29:07.645Z,84.40
2017-10-10T03:31:34.944Z,84.60
2017-10-10T03:34:01.942Z,84.60
2017-10-10T03:36:28.948Z,84.60
2017-10-10T03:38:55.837Z,84.20
2017-10-10T03:41:22.759Z,84.00
2017-10-10T03:43:49.655Z,84.00
2017-10-10T03:46:16.938Z,83.70
2017-10-10T03:48:43.874Z,83.70
2017-10-10T03:51:10.814Z,83.40
2017-10-10T03:53:37.731Z,83.50
2017-10-10T03:56:04.657Z,83.60
2017-10-10T03:58:31.556Z,83.20
2017-10-10T04:00:58.467Z,83.40
2017-10-10T04:03:25.791Z,83.70
2017-10-10T04:05:52.766Z,83.70
2017-10-10T04:08:19.646Z,83.90
2017-10-10T04:10:46.565Z,84.20
2017-10-10T04:13:13.851Z,84.60
2017-10-10T04:15:40.759Z,84.60
2017-10-10T04:18:07.702Z,84.80
2017-10-10T04:20:34.586Z,84.80
2017-10-10T04:23:01.499Z,85.10
2017-10-10T04:25:28.848Z,85.10
2017-10-10T04:27:55.730Z,85.10
2017-10-10T04:30:22.626Z,84.90
2017-10-10T04:32:49.549Z,84.50
2017-10-10T04:35:16.534Z,84.40
2017-10-10T04:37:43.483Z,84.70
2017-10-10T04:40:10.425Z,84.70
2017-10-10T04:42:37.310Z,84.80
2017-10-10T04:45:04.215Z,84.30
2017-10-10T04:47:31.157Z,84.40
2017-10-10T04:49:58.042Z,84.20
2017-10-10T04:52:24.957Z,83.80
2017-10-10T04:54:51.901Z,83.70
2017-10-10T04:57:18.809Z,84.20
2017-10-10T04:59:45.791Z,84.10
2017-10-10T05:02:13.134Z,85.00
2017-10-10T05:04:40.106Z,85.00
2017-10-10T05:07:07.391Z,85.30
2017-10-10T05:09:34.334Z,85.30
2017-10-10T05:12:01.227Z,85.20
2017-10-10T05:14:28.190Z,85.10
2017-10-10T05:16:55.114Z,85.10
2017-10-10T05:19:22.077Z,85.10
2017-10-10T05:21:49.025Z,84.80
2017-10-10T05:24:15.950Z,84.70
2017-10-10T05:26:42.845Z,84.80
2017-10-10T05:29:09.738Z,85.30
2017-10-10T05:31:36.664Z,85.30
2017-10-10T05:34:03.561Z,85.40
2017-10-10T05:36:30.895Z,85.30
2017-10-10T05:38:57.850Z,85.30
2017-10-10T05:41:24.802Z,85.50
2017-10-10T05:43:52.094Z,85.00
2017-10-10T05:46:19.015Z,85.00
2017-10-10T05:48:46.290Z,85.30
2017-10-10T05:51:13.193Z,85.30
2017-10-10T05:53:40.118Z,85.60
2017-10-10T05:56:07.102Z,85.60
2017-10-10T05:58:34.449Z,85.30
2017-10-10T06:01:01.369Z,85.30
2017-10-10T06:03:28.257Z,85.40
2017-10-10T06:05:55.541Z,85.20
2017-10-10T06:08:22.646Z,85.20
2017-10-10T06:10:49.591Z,85.60
2017-10-10T06:13:16.538Z,86.10
2017-10-10T06:15:43.463Z,86.10
2017-10-10T06:18:10.357Z,86.30
2017-10-10T06:20:37.273Z,86.10
2017-10-10T06:23:04.223Z,85.80
2017-10-10T06:25:31.110Z,86.30
2017-10-10T06:27:58.010Z,86.50
2017-10-10T06:30:24.935Z,86.20
2017-10-10T06:32:51.826Z,85.30
2017-10-10T06:35:19.105Z,85.50
2017-10-10T06:37:46.106Z,85.50
2017-10-10T06:40:12.999Z,85.80
2017-10-10T06:42:39.890Z,86.20
2017-10-10T06:45:06.820Z,86.30
2017-10-10T06:47:33.794Z,86.10
2017-10-10T06:50:00.735Z,86.20
2017-10-10T06:52:27.662Z,86.40
2017-10-10T06:54:54.631Z,86.40
2017-10-10T06:57:21.987Z,86.30
2017-10-10T06:59:48.932Z,86.30
2017-10-10T07:02:15.818Z,86.50
2017-10-10T07:04:42.706Z,86.60
2017-10-10T07:07:09.674Z,86.40
2017-10-10T07:09:36.567Z,86.30
2017-10-10T07:12:03.475Z,86.20
2017-10-10T07:14:30.819Z,86.30
2017-10-10T07:16:58.174Z,86.30
2017-10-10T07:19:25.058Z,86.30
2017-10-10T07:21:51.999Z,86.30
2017-10-10T07:24:18.952Z,86.10
2017-10-10T07:26:45.852Z,86.20
2017-10-10T07:29:12.844Z,86.10
2017-10-10T07:31:39.770Z,85.70
2017-10-10T07:34:07.103Z,86.40
2017-10-10T07:36:34.039Z,86.40
2017-10-10T07:39:01.002Z,86.20
2017-10-10T07:41:28.361Z,85.90
2017-10-10T07:43:55.706Z,85.30
2017-10-10T07:46:22.657Z,85.30
2017-10-10T07:48:49.551Z,85.50
2017-10-10T07:51:16.565Z,85.40
2017-10-10T07:53:43.862Z,85.20
2017-10-10T07:56:10.859Z,85.20
2017-10-10T07:58:38.190Z,84.70
2017-10-10T08:01:05.078Z,84.70
2017-10-10T08:03:31.967Z,84.70
2017-10-10T08:05:58.950Z,84.60
2017-10-10T08:08:26.229Z,85.00
2017-10-10T08:10:53.154Z,85.00
2017-10-10T08:13:20.486Z,84.70
2017-10-10T08:15:47.382Z,84.70
2017-10-10T08:18:14.294Z,83.60
2017-10-10T08:20:41.238Z,83.20
2017-10-10T08:23:08.530Z,81.90
2017-10-10T08:25:35.459Z,81.90
2017-10-10T08:28:02.786Z,81.90
2017-10-10T08:30:29.734Z,81.90
2017-10-10T08:32:56.626Z,81.80
2017-10-10T08:35:23.550Z,82.20
2017-10-10T08:37:50.883Z,82.90
2017-10-10T08:40:17.778Z,82.90
2017-10-10T08:42:44.779Z,82.20
2017-10-10T08:45:12.072Z,81.70
2017-10-10T08:47:38.987Z,81.80
2017-10-10T08:50:06.310Z,82.10
2017-10-10T08:52:33.282Z,82.10
2017-10-10T08:55:00.232Z,80.60
2017-10-10T08:57:27.586Z,83.20
2017-10-10T08:59:54.485Z,83.20
2017-10-10T09:02:21.477Z,84.60
2017-10-10T09:04:48.466Z,84.80
2017-10-10T09:07:15.366Z,85.30
2017-10-10T09:09:42.266Z,85.80
2017-10-10T09:12:10.067Z,85.70
2017-10-10T09:14:37.067Z,85.00
2017-10-10T09:17:03.954Z,84.40
2017-10-10T09:19:30.877Z,83.90
2017-10-10T09:21:57.866Z,83.90
2017-10-10T09:24:24.818Z,83.30
2017-10-10T09:26:52.172Z,83.30
2017-10-10T09:29:19.119Z,83.30
2017-10-10T09:31:46.025Z,83.40
2017-10-10T09:34:12.970Z,83.30
2017-10-10T09:36:39.965Z,83.70
2017-10-10T09:39:07.311Z,84.40
2017-10-10T09:41:34.246Z,84.40
2017-10-10T09:44:01.137Z,84.00
2017-10-10T09:46:28.023Z,83.70
2017-10-10T09:48:54.954Z,83.60
2017-10-10T09:51:21.946Z,83.60
2017-10-10T09:53:49.225Z,82.80
2017-10-10T09:56:16.155Z,82.80
2017-10-10T09:58:43.498Z,82.60
2017-10-10T10:01:10.386Z,82.60
2017-10-10T10:03:37.318Z,82.80
2017-10-10T10:06:04.238Z,82.30
2017-10-10T10:08:31.224Z,82.50
2017-10-10T10:10:58.326Z,83.10
2017-10-10T10:13:25.320Z,83.40
2017-10-10T10:15:52.234Z,83.50
2017-10-10T10:18:19.555Z,83.10
2017-10-10T10:20:46.442Z,83.10
2017-10-10T10:23:13.782Z,84.20
2017-10-10T10:25:40.722Z,84.20
2017-10-10T10:28:07.684Z,85.10
2017-10-10T10:30:35.033Z,84.70
2017-10-10T10:33:01.970Z,84.60
2017-10-10T10:35:28.861Z,85.30
2017-10-10T10:37:55.763Z,85.50
2017-10-10T10:40:22.710Z,84.90
2017-10-10T10:42:49.635Z,84.50
2017-10-10T10:45:16.611Z,84.20
2017-10-10T10:47:43.545Z,83.60
2017-10-10T10:50:10.462Z,83.70
2017-10-10T10:52:37.456Z,83.30
2017-10-10T10:55:04.394Z,83.30
2017-10-10T10:57:31.331Z,82.70
2017-10-10T10:59:58.285Z,82.50
2017-10-10T11:02:25.229Z,82.40
2017-10-10T11:04:52.103Z,82.80
2017-10-10T11:07:19.063Z,82.40
2017-10-10T11:09:45.987Z,81.30
2017-10-10T11:12:13.278Z,81.20
2017-10-10T11:14:40.279Z,81.20
2017-10-10T11:17:07.625Z,81.40
2017-10-10T11:19:34.510Z,81.40
2017-10-10T11:22:01.416Z,81.70
2017-10-10T11:24:28.745Z,81.70
2017-10-10T11:26:55.733Z,81.70
2017-10-10T11:29:23.028Z,83.20
2017-10-10T11:31:49.942Z,83.20
2017-10-10T11:34:17.229Z,83.40
2017-10-10T11:36:44.117Z,83.40
2017-10-10T11:39:11.067Z,82.20
2017-10-10T11:41:38.015Z,82.40
2017-10-10T11:44:04.957Z,82.00
2017-10-10T11:46:31.877Z,81.00
2017-10-10T11:48:58.855Z,80.20
2017-10-10T11:51:25.734Z,80.00
2017-10-10T11:53:52.666Z,79.80
2017-10-10T11:56:19.941Z,79.00
2017-10-10T11:58:46.847Z,79.00
2017-10-10T12:01:14.243Z,78.70
2017-10-10T12:03:41.126Z,78.70
2017-10-10T12:06:08.018Z,78.40
2017-10-10T12:08:34.934Z,78.80
2017-10-10T12:11:01.887Z,78.80
2017-10-10T12:13:28.777Z,78.30
2017-10-10T12:15:55.775Z,78.10
2017-10-10T12:18:22.722Z,77.50
2017-10-10T12:20:49.606Z,77.70
2017-10-10T12:23:16.529Z,77.50
2017-10-10T12:25:43.890Z,77.20
2017-10-10T12:28:11.229Z,76.40
2017-10-10T12:30:38.579Z,77.20
2017-10-10T12:33:05.458Z,77.20
2017-10-10T12:35:32.370Z,78.90
2017-10-10T12:37:59.324Z,80.10
2017-10-10T12:40:26.641Z,80.90
2017-10-10T12:42:53.535Z,80.90
2017-10-10T12:45:20.861Z,79.30
2017-10-10T12:47:47.821Z,79.30
2017-10-10T12:50:15.174Z,78.80
2017-10-10T12:52:42.118Z,78.80
2017-10-10T12:55:09.001Z,78.90
2017-10-10T12:57:35.913Z,79.10
2017-10-10T13:00:02.964Z,78.70
2017-10-10T13:02:29.905Z,79.00
2017-10-10T13:04:56.853Z,79.30
2017-10-10T13:07:23.774Z,78.80
2017-10-10T13:09:50.664Z,79.00
2017-10-10T13:12:18.004Z,78.90
2017-10-10T13:14:44.988Z,78.90
2017-10-10T13:17:11.886Z,78.60
2017-10-10T13:19:38.845Z,77.70
2017-10-10T13:22:06.207Z,77.00
2017-10-10T13:24:33.502Z,77.40
2017-10-10T13:27:00.386Z,77.40
2017-10-10T13:29:27.319Z,77.20
2017-10-10T13:31:54.217Z,76.60
2017-10-10T13:34:21.096Z,76.70
2017-10-10T13:36:48.010Z,77.10
2017-10-10T13:39:14.890Z,76.80
2017-10-10T13:41:41.866Z,77.20
2017-10-10T13:44:08.814Z,77.40
2017-10-10T13:46:35.699Z,77.70
2017-10-10T13:49:02.601Z,78.20
2017-10-10T13:51:29.554Z,78.60
2017-10-10T13:53:56.445Z,78.60
2017-10-10T13:56:23.330Z,78.70
2017-10-10T13:58:50.290Z,78.80
2017-10-10T14:01:17.175Z,79.00
2017-10-10T14:03:44.054Z,79.20
2017-10-10T14:06:10.983Z,79.80
2017-10-10T14:08:37.970Z,79.50
2017-10-10T14:11:04.870Z,79.50
2017-10-10T14:13:31.886Z,79.20
2017-10-10T14:15:59.218Z,79.30
2017-10-10T14:18:26.184Z,79.30
2017-10-10T14:20:53.495Z,79.20
2017-10-10T14:23:20.482Z,79.20
2017-10-10T14:25:47.769Z,78.70
2017-10-10T14:28:14.770Z,78.70
2017-10-10T14:30:41.657Z,78.80
2017-10-10T14:33:08.568Z,78.60
2017-10-10T14:35:35.913Z,78.00
2017-10-10T14:38:02.864Z,78.00
2017-10-10T14:40:29.819Z,78.30
2017-10-10T14:42:57.145Z,78.30
2017-10-10T14:45:24.026Z,78.30
2017-10-10T14:47:51.302Z,77.10
2017-10-10T14:50:18.246Z,77.10
2017-10-10T14:52:45.190Z,77.00
2017-10-10T14:55:12.106Z,77.10
2017-10-10T14:57:39.054Z,76.40
2017-10-10T15:00:05.994Z,76.80
2017-10-10T15:02:32.945Z,76.80
2017-10-10T15:04:59.865Z,76.90
2017-10-10T15:07:26.781Z,76.60
2017-10-10T15:09:53.664Z,76.70
2017-10-10T15:12:20.585Z,76.90
2017-10-10T15:14:47.465Z,76.90
2017-10-10T15:17:14.345Z,77.10
2017-10-10T15:19:41.660Z,78.80
2017-10-10T15:22:08.538Z,78.80
2017-10-10T15:24:35.817Z,79.00
2017-10-10T15:27:02.746Z,79.00
2017-10-10T15:29:30.031Z,78.50
2017-10-10T15:31:56.921Z,78.50
2017-10-10T15:34:23.859Z,78.40
2017-10-10T15:36:50.818Z,78.60
2017-10-10T15:39:17.762Z,78.80
2017-10-10T15:41:44.685Z,79.10
2017-10-10T15:44:11.597Z,79.20
2017-10-10T15:46:38.503Z,79.20
2017-10-10T15:49:05.855Z,79.20
2017-10-10T15:51:32.799Z,79.10
2017-10-10T15:53:59.762Z,79.20
2017-10-10T15:56:27.085Z,79.30
2017-10-10T15:58:54.001Z,79.30
2017-10-10T16:01:20.894Z,79.30
2017-10-10T16:03:47.863Z,78.90
2017-10-10T16:06:15.215Z,79.00
2017-10-10T16:08:42.508Z,78.60
2017-10-10T16:11:09.434Z,78.60
2017-10-10T16:13:36.338Z,78.20
2017-10-10T16:16:03.236Z,78.70
2017-10-10T16:18:30.238Z,79.10
2017-10-10T16:20:57.194Z,79.00
2017-10-10T16:23:24.478Z,79.60
2017-10-10T16:25:51.481Z,79.60
2017-10-10T16:28:18.366Z,79.70
2017-10-10T16:30:45.249Z,79.50
2017-10-10T16:33:12.225Z,79.60
2017-10-10T16:35:39.179Z,79.40
2017-10-10T16:38:06.536Z,79.90
2017-10-10T16:40:33.457Z,79.90
2017-10-10T16:43:00.351Z,79.80
2017-10-10T16:45:27.259Z,79.70
2017-10-10T16:47:54.585Z,79.60
2017-10-10T16:50:21.570Z,79.60
2017-10-10T16:52:48.460Z,79.70
2017-10-10T16:55:15.382Z,80.00
2017-10-10T16:57:42.278Z,79.90
2017-10-10T17:00:09.167Z,79.80
2017-10-10T17:02:36.513Z,80.00
2017-10-10T17:05:03.794Z,80.10
2017-10-10T17:07:30.683Z,80.10
2017-10-10T17:09:57.691Z,80.00
2017-10-10T17:12:24.593Z,80.10
2017-10-10T17:14:51.537Z,80.10
2017-10-10T17:17:18.490Z,80.10
2017-10-10T17:19:45.437Z,79.80
2017-10-10T17:22:12.424Z,79.90
2017-10-10T17:24:39.362Z,79.90
2017-10-10T17:27:06.252Z,79.90
2017-10-10T17:29:33.222Z,79.80
2017-10-10T17:32:00.151Z,79.80
2017-10-10T17:34:27.110Z,79.80
2017-10-10T17:36:54.018Z,79.80
2017-10-10T17:39:21.023Z,79.80
2017-10-10T17:41:48.365Z,79.40
2017-10-10T17:44:15.309Z,79.40
2017-10-10T17:46:42.249Z,79.70
2017-10-10T17:49:09.205Z,79.50
2017-10-10T17:51:36.090Z,80.00
2017-10-10T17:54:03.094Z,80.20
2017-10-10T17:56:29.990Z,79.90
2017-10-10T17:58:56.888Z,80.10
2017-10-10T18:01:23.825Z,80.30
2017-10-10T18:03:50.705Z,80.50
2017-10-10T18:06:17.630Z,80.90
2017-10-10T18:08:44.557Z,80.90
2017-10-10T18:11:11.457Z,80.70
2017-10-10T18:13:38.361Z,80.70
2017-10-10T18:16:05.283Z,80.80
2017-10-10T18:18:32.228Z,80.90
2017-10-10T18:20:59.205Z,81.20
2017-10-10T18:23:26.561Z,81.70
2017-10-10T18:25:53.906Z,81.70
2017-10-10T18:28:20.862Z,81.70
2017-10-10T18:30:48.180Z,81.60
2017-10-10T18:33:15.071Z,81.60
2017-10-10T18:35:42.350Z,81.30
2017-10-10T18:38:09.277Z,81.30
2017-10-10T18:40:36.562Z,82.20
2017-10-10T18:43:03.449Z,82.20
2017-10-10T18:45:30.406Z,82.30
2017-10-10T18:47:57.690Z,82.60
2017-10-10T18:50:24.573Z,82.60
2017-10-10T18:52:51.545Z,82.80
2017-10-10T18:55:18.498Z,82.90
2017-10-10T18:57:45.437Z,82.80
2017-10-10T19:00:12.770Z,82.90
2017-10-10T19:02:39.741Z,82.90
2017-10-10T19:05:07.042Z,83.00
2017-10-10T19:07:33.982Z,83.10
2017-10-10T19:10:00.894Z,82.90
2017-10-10T19:12:27.778Z,82.70
2017-10-10T19:14:54.716Z,82.60
2017-10-10T19:17:21.603Z,82.90
2017-10-10T19:19:48.577Z,83.10
2017-10-10T19:22:15.930Z,83.10
2017-10-10T19:24:43.258Z,82.90
2017-10-10T19:27:10.241Z,82.90
2017-10-10T19:29:37.589Z,83.20
2017-10-10T19:32:04.494Z,83.20
2017-10-10T19:34:31.386Z,83.50
2017-10-10T19:36:58.702Z,83.70
2017-10-10T19:39:25.933Z,83.70
2017-10-10T19:41:52.813Z,83.70
2017-10-10T19:44:19.787Z,83.70
2017-10-10T19:46:47.147Z,84.00
2017-10-10T19:49:14.486Z,83.90
2017-10-10T19:51:41.437Z,83.90
2017-10-10T19:54:08.393Z,84.00
2017-10-10T19:56:36.199Z,84.00
2017-10-10T19:59:03.159Z,84.00
2017-10-10T20:01:30.054Z,84.40
2017-10-10T20:03:57.411Z,84.00
2017-10-10T20:06:24.857Z,84.50
2017-10-10T20:08:51.748Z,84.50
2017-10-10T20:11:18.662Z,84.50
2017-10-10T20:13:46.002Z,85.10
2017-10-10T20:16:12.950Z,85.10
2017-10-10T20:18:39.901Z,85.10
2017-10-10T20:21:07.260Z,85.30
2017-10-10T20:23:34.554Z,85.40
2017-10-10T20:26:01.442Z,85.40
2017-10-10T20:28:28.393Z,85.20
2017-10-10T20:30:55.286Z,85.10
2017-10-10T20:33:22.186Z,85.10
2017-10-10T20:35:49.132Z,85.00
2017-10-10T20:38:16.019Z,84.80
2017-10-10T20:40:42.902Z,84.60
2017-10-10T20:43:09.828Z,84.60
2017-10-10T20:45:36.817Z,84.20
2017-10-10T20:48:03.765Z,84.20
2017-10-10T20:50:30.727Z,84.20
2017-10-10T20:52:58.013Z,83.80
2017-10-10T20:55:24.906Z,83.80
2017-10-10T20:57:51.854Z,84.00
2017-10-10T21:00:18.746Z,84.30
2017-10-10T21:02:45.634Z,84.30
2017-10-10T21:05:12.597Z,84.20
2017-10-10T21:07:39.485Z,84.60
2017-10-10T21:10:06.370Z,84.80
2017-10-10T21:12:33.333Z,85.20
2017-10-10T21:15:00.282Z,85.50
2017-10-10T21:17:27.173Z,85.20
2017-10-10T21:19:54.106Z,85.40
2017-10-10T21:22:20.995Z,85.60
2017-10-10T21:24:47.962Z,85.10
2017-10-10T21:27:14.894Z,85.10
2017-10-10T21:29:41.855Z,85.40
2017-10-10T21:32:08.793Z,85.20
2017-10-10T21:34:35.752Z,85.40
2017-10-10T21:37:02.697Z,85.30
2017-10-10T21:39:29.585Z,85.40
2017-10-10T21:41:56.531Z,85.50
2017-10-10T21:44:23.413Z,85.60
2017-10-10T21:46:50.380Z,85.70
2017-10-10T21:49:17.328Z,85.80
2017-10-10T21:51:44.661Z,85.80
2017-10-10T21:54:11.623Z,85.80
2017-10-10T21:56:38.568Z,85.60
2017-10-10T21:59:05.454Z,85.30
2017-10-10T22:01:32.342Z,85.00
2017-10-10T22:03:59.273Z,85.30
2017-10-10T22:06:26.154Z,85.40
2017-10-10T22:08:53.098Z,84.80
2017-10-10T22:11:20.049Z,85.30
2017-10-10T22:13:47.418Z,84.80
2017-10-10T22:16:14.349Z,84.80
2017-10-10T22:18:41.289Z,84.50
2017-10-10T22:21:08.245Z,84.50
2017-10-10T22:23:35.149Z,84.80
2017-10-10T22:26:02.133Z,85.00
2017-10-10T22:28:29.086Z,84.80
2017-10-10T22:30:56.438Z,85.20
2017-10-10T22:33:23.366Z,85.20
2017-10-10T22:35:50.253Z,85.20
2017-10-10T22:38:17.539Z,85.20
2017-10-10T22:40:44.526Z,85.20
2017-10-10T22:43:11.415Z,85.20
2017-10-10T22:45:38.303Z,84.90
2017-10-10T22:48:05.293Z,85.10
2017-10-10T22:50:32.622Z,85.10
2017-10-10T22:52:59.570Z,85.10
2017-10-10T22:55:26.522Z,85.10
2017-10-10T22:57:53.888Z,85.40
2017-10-10T23:00:21.221Z,85.30
2017-10-10T23:02:48.169Z,85.30
2017-10-10T23:05:15.118Z,84.80
2017-10-10T23:07:42.008Z,85.00
2017-10-10T23:10:09.007Z,85.20
2017-10-10T23:12:35.965Z,85.10
2017-10-10T23:15:03.326Z,84.90
2017-10-10T23:17:30.642Z,84.90
2017-10-10T23:19:57.537Z,84.90
2017-10-10T23:22:24.813Z,84.50
2017-10-10T23:24:51.776Z,84.50
2017-10-10T23:27:18.950Z,84.40
2017-10-10T23:29:45.842Z,84.50
2017-10-10T23:32:12.861Z,84.60
2017-10-10T23:34:39.752Z,84.90
2017-10-10T23:37:06.643Z,84.80
2017-10-10T23:39:33.573Z,84.60
2017-10-10T23:42:00.457Z,84.40
2017-10-10T23:44:27.798Z,84.80
2017-10-10T23:46:54.741Z,84.80
2017-10-10T23:49:21.625Z,85.10
2017-10-10T23:51:48.537Z,85.40
2017-10-10T23:54:15.477Z,85.40
2017-10-10T23:56:42.364Z,85.30
2017-10-10T23:59:09.269Z,84.80
